메인 페이지
METAR-TAF:

METAR-TAF

공항 :

누악쇼트, 모리타니

위도: 18-18-36N, 경도: 015-58-11W, 고도: 3m

현재 날씨관측

예보는 1 시간 8분 전, 21:00시(UTC)에 발표되었습니다.
북북서12kt
온도 25°C
습도 54%
기압 1011 hPa
시정 10km 이상
1500m 미만 상공 구름 및 적란운 없음

METAR: GQNO 312100Z 34012KT CAVOK 25/15 Q1011 NOSIG

시각: 22:08 (22:08 UTC)

예보

예보는 5 시간 8분 전, 17:00시(UTC)에 발표되었습니다.
예보 대상 시간: 31일 18시부터 01일 24시까지 (UTC)
북북서14kt
시정: 8000m
전환 중
01일 08시부터 01일 10시까지 (UTC)
북동10kt
전환 중
01일 14시부터 01일 16시까지 (UTC)
북북서14kt

TAF: GQNO 311700Z 3118/0124 33014KT 8000 NSC BECMG 0108/0110 04010KT BECMG 0114/0116 34014KT

4,000개 이상의 공항 관측 자료 및 예보 (METAR 및 TAF 보고).

지도상에서 검색 가능한 기상관측소가 노란 점과 빨간 점으로 표시되어 있습니다.

기상관측소 명을 보려면 표시 위로 마우스를 이동하세요.

날씨 관측과 예보를 보려면 클릭하세요.

지도 변경 : 확대하려면 엑스 표시가 있는 녹색 버튼, 축소하려면 빼기 표시가 있는 녹색 버튼, 다음 페이지의 지도를 보려면 녹색 화살표를 클릭하세요.


METAR-TAF: